Time;durP1;ratioP1;P1;durP2;ratioP2;P2;SDS_P1;SDS_P2;PMS_P1;PMS_P2;Temp;Humidity;BMP_temperature;BMP_pressure;BME280_temperature;BME280_humidity;BME280_pressure;Samples;Min_cycle;Max_cycle;Signal;HPM_P1;HPM_P2
2022/07/09 00:00:13;;;;;;;12.80;6.75;;;;;;;19.42;83.63;102735.59;4937549;29;20044;-50
2022/07/09 00:02:41;;;;;;;12.50;7.03;;;;;;;19.41;83.71;102733.91;4920652;29;20047;-50
2022/07/09 00:05:09;;;;;;;14.93;7.25;;;;;;;19.40;83.58;102729.50;4941500;29;20400;-51
2022/07/09 00:07:43;;;;;;;17.75;7.70;;;;;;;19.37;83.69;102733.66;4944423;29;20086;-49
2022/07/09 00:10:11;;;;;;;16.33;8.75;;;;;;;19.37;83.81;102722.59;4913777;29;20168;-49
2022/07/09 00:12:39;;;;;;;16.10;9.43;;;;;;;19.36;84.08;102715.41;4937429;29;20503;-50
2022/07/09 00:15:07;;;;;;;13.50;8.77;;;;;;;19.34;83.95;102717.66;4936794;29;20055;-50
2022/07/09 00:17:35;;;;;;;14.10;8.30;;;;;;;19.32;84.27;102722.63;4920715;29;20405;-51
2022/07/09 00:20:04;;;;;;;15.27;7.82;;;;;;;19.31;84.21;102721.81;4937730;29;20036;-48
2022/07/09 00:22:33;;;;;;;18.02;9.48;;;;;;;19.30;84.25;102727.59;4945879;29;20052;-49
2022/07/09 00:25:01;;;;;;;12.68;7.10;;;;;;;19.22;84.48;102733.69;4936780;29;20499;-48
2022/07/09 00:27:29;;;;;;;12.10;7.20;;;;;;;19.16;84.73;102728.19;4936420;29;20066;-49
2022/07/09 00:29:56;;;;;;;12.35;7.78;;;;;;;19.11;85.15;102736.47;4935417;29;20048;-50
2022/07/09 00:32:24;;;;;;;11.43;7.10;;;;;;;19.07;85.43;102740.94;4936290;29;20534;-48
2022/07/09 00:34:52;;;;;;;13.48;7.60;;;;;;;19.03;85.42;102734.28;4937659;29;20052;-50
2022/07/09 00:37:19;;;;;;;15.57;7.82;;;;;;;19.01;85.39;102730.97;4925642;29;20063;-50
2022/07/09 00:39:47;;;;;;;16.35;7.88;;;;;;;19.02;85.51;102738.16;4935635;29;20044;-48
2022/07/09 00:42:14;;;;;;;12.40;7.43;;;;;;;19.01;85.46;102727.41;4935741;29;20426;-50
2022/07/09 00:44:42;;;;;;;12.30;7.53;;;;;;;18.98;85.33;102731.53;4938278;29;20051;-50
2022/07/09 00:47:10;;;;;;;12.30;7.20;;;;;;;18.96;85.34;102728.22;4936880;29;20469;-50
2022/07/09 00:49:42;;;;;;;13.63;7.78;;;;;;;18.96;85.48;102728.22;4935480;29;20069;-50
2022/07/09 00:52:13;;;;;;;13.00;7.72;;;;;;;18.94;85.34;102728.50;4917618;29;20046;-50
2022/07/09 00:54:41;;;;;;;13.93;7.53;;;;;;;18.91;85.45;102726.31;4923821;29;20388;-47
2022/07/09 00:57:10;;;;;;;13.48;7.55;;;;;;;18.88;85.40;102720.50;4950509;29;20119;-48
2022/07/09 00:59:38;;;;;;;13.40;7.68;;;;;;;18.88;85.48;102721.34;4919777;29;20048;-48
2022/07/09 01:02:10;;;;;;;11.05;7.72;;;;;;;18.88;85.41;102720.50;4918814;29;20127;-50
2022/07/09 01:04:39;;;;;;;12.57;8.13;;;;;;;18.86;85.61;102709.72;4935297;29;20054;-51
2022/07/09 01:07:07;;;;;;;11.57;7.03;;;;;;;18.87;85.51;102727.13;4922817;29;20447;-49
2022/07/09 01:09:34;;;;;;;12.48;7.70;;;;;;;18.85;85.74;102719.13;4935514;29;20126;-48
2022/07/09 01:12:02;;;;;;;13.85;7.53;;;;;;;18.85;85.59;102712.75;4918494;29;20038;-48
2022/07/09 01:14:30;;;;;;;11.57;7.33;;;;;;;18.82;85.61;102707.81;4901559;29;1106350;-48
2022/07/09 01:17:00;;;;;;;12.35;7.63;;;;;;;18.78;85.89;102717.75;4939340;29;20032;-51
2022/07/09 01:19:28;;;;;;;10.88;7.40;;;;;;;18.77;85.83;102710.56;4903163;29;20142;-50
2022/07/09 01:21:56;;;;;;;14.45;8.05;;;;;;;18.76;86.08;102701.47;4935867;29;20047;-50
2022/07/09 01:24:31;;;;;;;12.57;8.40;;;;;;;18.73;86.20;102701.97;4938045;29;20052;-49
2022/07/09 01:26:59;;;;;;;14.25;8.15;;;;;;;18.72;86.20;102709.44;4939265;29;20055;-48
2022/07/09 01:29:27;;;;;;;14.10;8.43;;;;;;;18.70;86.33;102702.53;4935302;28;20046;-53
2022/07/09 01:31:54;;;;;;;12.80;8.48;;;;;;;18.69;86.37;102706.41;4922501;29;20075;-48
2022/07/09 01:34:22;;;;;;;16.10;8.77;;;;;;;18.64;86.59;102707.25;4936832;29;20054;-51
2022/07/09 01:36:50;;;;;;;11.52;7.95;;;;;;;18.59;86.61;102701.72;4927114;29;20509;-49
2022/07/09 01:39:17;;;;;;;12.88;8.38;;;;;;;18.58;86.85;102700.06;4933865;29;20098;-47
2022/07/09 01:41:45;;;;;;;14.30;9.00;;;;;;;18.58;86.89;102699.22;4922685;29;20047;-52
2022/07/09 01:44:12;;;;;;;14.73;8.85;;;;;;;18.55;86.95;102697.84;4942704;29;20126;-46
2022/07/09 01:46:40;;;;;;;14.00;8.40;;;;;;;18.54;87.10;102698.94;4935725;29;20074;-48
2022/07/09 01:49:08;;;;;;;14.80;8.68;;;;;;;18.53;87.15;102691.78;4935396;29;20036;-47
2022/07/09 01:51:35;;;;;;;14.30;7.88;;;;;;;18.50;87.27;102689.56;4936004;29;20039;-46
2022/07/09 01:54:03;;;;;;;14.63;8.88;;;;;;;18.51;87.50;102686.50;4929686;29;20055;-51
2022/07/09 01:56:32;;;;;;;14.82;8.85;;;;;;;18.51;87.36;102681.00;4935195;29;20530;-45
2022/07/09 01:59:00;;;;;;;13.32;8.93;;;;;;;18.51;87.29;102682.94;4935606;29;20067;-47
2022/07/09 02:01:27;;;;;;;13.38;9.15;;;;;;;18.50;87.37;102684.06;4936560;29;20046;-46
2022/07/09 02:03:55;;;;;;;15.88;9.27;;;;;;;18.49;87.40;102679.63;4924452;29;20042;-50
2022/07/09 02:06:23;;;;;;;15.23;8.73;;;;;;;18.48;87.33;102683.50;4934393;29;20048;-51
2022/07/09 02:08:52;;;;;;;11.88;7.35;;;;;;;18.48;87.31;102677.97;4936751;29;20046;-48
2022/07/09 02:11:19;;;;;;;10.90;7.13;;;;;;;18.50;87.21;102678.53;4935376;29;20511;-48
2022/07/09 02:13:47;;;;;;;12.90;7.45;;;;;;;18.52;87.24;102668.03;4937458;29;20415;-50
2022/07/09 02:16:15;;;;;;;13.07;8.60;;;;;;;18.52;87.26;102671.63;4935337;29;20051;-49
2022/07/09 02:18:42;;;;;;;15.32;9.43;;;;;;;18.53;87.17;102680.72;4934584;29;20122;-50
2022/07/09 02:21:11;;;;;;;15.40;9.35;;;;;;;18.51;87.15;102681.00;4933034;29;20050;-48
2022/07/09 02:23:39;;;;;;;15.13;9.20;;;;;;;18.46;87.37;102675.47;4946955;29;20042;-47
2022/07/09 02:26:06;;;;;;;14.88;8.63;;;;;;;18.42;87.39;102679.06;4936491;29;20039;-49
2022/07/09 02:28:34;;;;;;;13.63;8.60;;;;;;;18.38;87.64;102676.03;4918684;29;20510;-46
2022/07/09 02:31:02;;;;;;;13.23;8.57;;;;;;;18.34;88.01;102674.09;4935509;29;20046;-47
2022/07/09 02:33:31;;;;;;;12.60;8.68;;;;;;;18.30;88.17;102671.06;4936420;29;20507;-48
2022/07/09 02:35:59;;;;;;;14.68;8.25;;;;;;;18.29;88.17;102664.72;4936599;29;20040;-47
2022/07/09 02:38:26;;;;;;;14.63;8.48;;;;;;;18.26;88.51;102659.75;4917982;29;20050;-47
2022/07/09 02:40:54;;;;;;;10.40;6.63;;;;;;;18.29;88.38;102658.38;4905621;29;20052;-49
2022/07/09 02:43:22;;;;;;;12.25;7.35;;;;;;;18.30;88.21;102658.09;4948880;29;20058;-48
2022/07/09 02:45:51;;;;;;;10.60;6.88;;;;;;;18.35;88.36;102653.66;4944425;29;20051;-48
2022/07/09 02:48:19;;;;;;;11.65;7.97;;;;;;;18.34;88.28;102649.25;4944500;29;20063;-48
2022/07/09 02:50:46;;;;;;;17.02;9.48;;;;;;;18.28;88.60;102654.78;4931245;29;20035;-49
2022/07/09 02:53:15;;;;;;;17.58;9.27;;;;;;;18.22;89.04;102647.59;4936238;29;20123;-47
2022/07/09 02:55:42;;;;;;;13.82;8.80;;;;;;;18.20;89.05;102647.03;4935173;29;20055;-48
2022/07/09 02:58:10;;;;;;;15.45;9.38;;;;;;;18.18;89.23;102654.75;4936447;29;20059;-50
2022/07/09 03:00:39;;;;;;;15.30;9.63;;;;;;;18.15;89.68;102654.50;4935605;29;20054;-55
2022/07/09 03:03:07;;;;;;;15.95;9.27;;;;;;;18.10;89.85;102649.81;4948169;29;20039;-52
2022/07/09 03:05:36;;;;;;;15.25;9.30;;;;;;;18.08;90.09;102652.00;4940699;29;20051;-53
2022/07/09 03:08:03;;;;;;;15.55;9.18;;;;;;;18.05;90.15;102644.28;4933847;29;20040;-51
2022/07/09 03:10:31;;;;;;;13.93;9.20;;;;;;;18.01;90.44;102648.69;4929966;29;20047;-49
2022/07/09 03:12:59;;;;;;;18.25;9.55;;;;;;;18.00;90.69;102649.78;4940555;29;20044;-55
2022/07/09 03:15:27;;;;;;;14.23;9.30;;;;;;;17.99;90.53;102642.59;4936808;29;20480;-51
2022/07/09 03:17:54;;;;;;;14.55;9.45;;;;;;;17.97;90.69;102645.66;4950730;29;20127;-55
2022/07/09 03:20:22;;;;;;;15.65;9.63;;;;;;;17.93;90.54;102649.22;4950471;28;20036;-52
2022/07/09 03:22:50;;;;;;;14.23;9.75;;;;;;;17.92;90.80;102658.59;4952153;29;20054;-51
2022/07/09 03:25:17;;;;;;;14.50;9.15;;;;;;;17.91;90.79;102655.00;4928944;29;20049;-49
2022/07/09 03:27:45;;;;;;;14.23;9.48;;;;;;;17.91;90.47;102656.94;4945215;29;20048;-50
2022/07/09 03:30:13;;;;;;;16.02;9.23;;;;;;;17.91;90.55;102648.66;4941885;29;20495;-51
2022/07/09 03:32:40;;;;;;;13.43;8.75;;;;;;;17.90;90.38;102655.31;4949841;29;20047;-50
2022/07/09 03:35:08;;;;;;;14.40;9.77;;;;;;;17.87;90.39;102660.25;4942949;29;20055;-48
2022/07/09 03:37:35;;;;;;;14.45;9.77;;;;;;;17.85;90.58;102656.94;4931061;29;20491;-48
2022/07/09 03:40:04;;;;;;;13.88;9.70;;;;;;;17.83;90.47;102653.63;4937781;29;20040;-52
2022/07/09 03:42:32;;;;;;;15.63;9.50;;;;;;;17.82;90.69;102654.72;4941438;29;20043;-47
2022/07/09 03:44:59;;;;;;;16.58;10.05;;;;;;;17.80;90.59;102651.41;4923397;29;20047;-50
2022/07/09 03:47:27;;;;;;;14.23;10.07;;;;;;;17.79;90.71;102649.72;4937683;29;20036;-51
2022/07/09 03:49:55;;;;;;;16.42;10.18;;;;;;;17.77;90.85;102646.38;4937893;29;20095;-49
2022/07/09 03:52:22;;;;;;;18.23;9.75;;;;;;;17.78;90.88;102642.56;4937769;29;20127;-48
2022/07/09 03:54:50;;;;;;;14.25;10.70;;;;;;;17.78;90.82;102648.06;4937360;29;20067;-52
2022/07/09 03:57:17;;;;;;;14.32;9.95;;;;;;;17.79;90.80;102644.19;4952937;28;20396;-49
2022/07/09 03:59:45;;;;;;;15.82;10.98;;;;;;;17.78;90.54;102642.56;4937787;29;20048;-48
2022/07/09 04:02:13;;;;;;;16.55;11.18;;;;;;;17.76;90.57;102644.75;4938901;29;20048;-47
2022/07/09 04:04:41;;;;;;;15.32;10.98;;;;;;;17.75;90.49;102648.63;4935898;29;20699;-48
2022/07/09 04:07:08;;;;;;;15.73;9.98;;;;;;;17.76;90.57;102642.00;4919603;29;20075;-49
2022/07/09 04:09:36;;;;;;;15.02;10.95;;;;;;;17.76;90.57;102642.00;4903580;29;20059;-48
2022/07/09 04:12:04;;;;;;;15.48;11.05;;;;;;;17.78;90.43;102644.47;4943079;28;20046;-49
2022/07/09 04:14:32;;;;;;;15.57;11.57;;;;;;;17.78;90.58;102648.06;4937610;29;20131;-48
2022/07/09 04:16:59;;;;;;;14.18;11.07;;;;;;;17.79;90.38;102651.66;4945463;29;20553;-49
2022/07/09 04:19:27;;;;;;;16.80;11.93;;;;;;;17.77;90.39;102645.56;4936174;29;20043;-48
2022/07/09 04:21:55;;;;;;;16.35;11.85;;;;;;;17.76;90.21;102650.25;4936888;29;20052;-47
2022/07/09 04:24:22;;;;;;;16.65;12.32;;;;;;;17.73;90.57;102656.31;4942712;29;20047;-48
2022/07/09 04:26:50;;;;;;;19.27;12.43;;;;;;;17.70;90.55;102654.09;4934888;29;20075;-51
2022/07/09 04:29:17;;;;;;;19.40;12.50;;;;;;;17.68;90.78;102653.56;4918477;29;20067;-49
2022/07/09 04:31:45;;;;;;;17.60;13.00;;;;;;;17.69;90.75;102649.69;4937233;29;20043;-50
2022/07/09 04:34:13;;;;;;;20.83;13.10;;;;;;;17.68;90.85;102640.59;4917961;29;20068;-47
2022/07/09 04:36:40;;;;;;;18.30;12.77;;;;;;;17.69;90.85;102646.94;4936526;29;20052;-50
2022/07/09 04:39:09;;;;;;;19.92;13.88;;;;;;;17.68;91.08;102640.59;4936842;29;20047;-49
2022/07/09 04:41:37;;;;;;;20.10;12.27;;;;;;;17.70;91.01;102634.78;4918948;29;20051;-49
2022/07/09 04:44:04;;;;;;;20.10;12.98;;;;;;;17.72;91.22;102635.34;4935969;29;20079;-54
2022/07/09 04:46:32;;;;;;;17.05;12.90;;;;;;;17.74;91.06;102635.91;4918169;29;20050;-50
2022/07/09 04:49:00;;;;;;;19.38;14.07;;;;;;;17.75;91.16;102636.75;4918985;29;20277;-51
2022/07/09 04:51:27;;;;;;;19.45;13.70;;;;;;;17.77;91.33;102643.63;4920773;29;20043;-51
2022/07/09 04:53:55;;;;;;;20.45;14.40;;;;;;;17.79;91.56;102641.44;4950012;29;20406;-49
2022/07/09 04:56:23;;;;;;;17.88;13.65;;;;;;;17.79;91.23;102632.34;4937346;29;20048;-48
2022/07/09 04:58:53;;;;;;;18.73;13.90;;;;;;;17.81;91.48;102639.28;4919234;29;20445;-50
2022/07/09 05:01:22;;;;;;;20.70;15.13;;;;;;;17.84;91.79;102640.66;4944667;29;20550;-52
2022/07/09 05:03:50;;;;;;;19.80;15.13;;;;;;;17.84;92.31;102647.00;4920316;29;20131;-48
2022/07/09 05:06:18;;;;;;;21.45;15.80;;;;;;;17.85;92.30;102643.16;4936395;29;20395;-49
2022/07/09 05:08:50;;;;;;;19.73;14.48;;;;;;;17.84;92.71;102635.97;4936349;29;20102;-50
2022/07/09 05:11:17;;;;;;;19.17;14.95;;;;;;;17.86;92.78;102639.28;4936995;28;20486;-50
2022/07/09 05:13:46;;;;;;;22.23;15.63;;;;;;;17.87;92.99;102638.19;4936199;29;20040;-49
2022/07/09 05:16:14;;;;;;;22.02;14.75;;;;;;;17.91;92.70;102630.19;4919462;29;20119;-49
2022/07/09 05:18:42;;;;;;;20.08;14.60;;;;;;;17.94;93.10;102626.06;4935860;29;20578;-50
2022/07/09 05:21:10;;;;;;;19.33;12.27;;;;;;;17.97;92.87;102622.78;4947614;29;20070;-50
2022/07/09 05:23:37;;;;;;;21.13;15.88;;;;;;;18.00;93.10;102623.03;4917997;29;20050;-51
2022/07/09 05:26:05;;;;;;;17.67;12.68;;;;;;;18.02;92.97;102626.34;4935365;29;20043;-48
2022/07/09 05:28:33;;;;;;;17.02;11.38;;;;;;;18.06;92.68;102626.63;4936687;29;20058;-52
2022/07/09 05:31:01;;;;;;;21.83;12.68;;;;;;;18.08;92.85;102627.19;4919114;29;20035;-50
2022/07/09 05:33:49;;;;;;;17.10;12.65;;;;;;;18.10;92.78;102613.94;4923404;29;20044;-48
2022/07/09 05:36:17;;;;;;;20.05;12.52;;;;;;;18.14;92.41;102617.81;4935875;29;20043;-48
2022/07/09 05:38:47;;;;;;;20.27;13.38;;;;;;;18.17;92.83;102617.25;4936015;29;20070;-50
2022/07/09 05:41:15;;;;;;;15.75;11.07;;;;;;;18.21;91.47;102610.09;4936946;29;20098;-52
2022/07/09 05:43:43;;;;;;;17.55;10.63;;;;;;;18.31;89.10;102601.78;4950118;29;20118;-53
2022/07/09 05:46:11;;;;;;;16.25;9.63;;;;;;;18.34;89.35;102605.13;4935565;29;20035;-49
2022/07/09 05:48:38;;;;;;;18.60;12.07;;;;;;;18.35;89.15;102604.84;4935955;29;20554;-52
2022/07/09 05:51:06;;;;;;;18.45;12.23;;;;;;;18.35;90.54;102598.47;4935957;29;20036;-49
2022/07/09 05:53:34;;;;;;;20.17;14.60;;;;;;;18.34;91.49;102599.59;4939265;29;20040;-48
2022/07/09 05:56:01;;;;;;;15.73;11.15;;;;;;;18.36;90.42;102608.44;4918478;29;20051;-50
2022/07/09 05:58:29;;;;;;;20.95;14.32;;;;;;;18.37;91.29;102608.13;4935776;29;20039;-51
2022/07/09 06:00:56;;;;;;;14.90;11.50;;;;;;;18.38;90.78;102614.50;4936217;29;20131;-51
2022/07/09 06:03:24;;;;;;;13.05;10.10;;;;;;;18.41;90.03;102608.41;4949943;29;20561;-49
2022/07/09 06:05:52;;;;;;;19.00;12.85;;;;;;;18.43;90.46;102612.56;4935425;29;20054;-51
2022/07/09 06:08:20;;;;;;;23.10;14.73;;;;;;;18.42;91.95;102619.16;4918573;29;20120;-49
2022/07/09 06:10:48;;;;;;;20.05;16.02;;;;;;;18.39;92.40;102629.94;4249714;29;10000546;-51
2022/07/09 06:13:16;;;;;;;22.90;15.80;;;;;;;18.36;93.10;102624.97;4931949;29;20052;-52
2022/07/09 06:15:43;;;;;;;26.13;15.75;;;;;;;18.32;93.35;102635.72;4931806;29;20067;-50
2022/07/09 06:18:11;;;;;;;21.98;15.50;;;;;;;18.29;93.93;102633.53;4932194;29;20048;-48
2022/07/09 06:20:39;;;;;;;17.65;12.68;;;;;;;18.27;94.24;102633.81;4917777;29;20040;-47
2022/07/09 06:23:07;;;;;;;15.70;11.43;;;;;;;18.29;94.32;102639.88;4932053;29;20075;-48
2022/07/09 06:25:35;;;;;;;20.35;14.48;;;;;;;18.33;94.51;102640.16;4931987;29;20059;-48
2022/07/09 06:28:04;;;;;;;20.77;14.23;;;;;;;18.35;94.49;102634.34;4932376;29;20044;-48
2022/07/09 06:30:33;;;;;;;23.50;16.98;;;;;;;18.35;94.52;102634.34;4923631;29;20051;-48
2022/07/09 06:33:01;;;;;;;21.35;15.48;;;;;;;18.34;94.79;102629.94;4918554;29;20048;-48
2022/07/09 06:35:29;;;;;;;20.88;15.13;;;;;;;18.37;94.96;102637.66;4935487;29;20483;-47
2022/07/09 06:37:57;;;;;;;21.02;15.15;;;;;;;18.38;95.06;102639.34;4943277;29;20074;-47
2022/07/09 06:40:24;;;;;;;22.77;15.70;;;;;;;18.40;95.23;102639.88;4939798;29;20047;-48
2022/07/09 06:42:52;;;;;;;21.52;14.80;;;;;;;18.40;94.64;102637.97;4939337;29;20043;-48
2022/07/09 06:45:31;;;;;;;20.83;15.15;;;;;;;18.39;94.52;102635.47;4920825;29;20048;-48
2022/07/09 06:47:59;;;;;;;18.13;14.20;;;;;;;18.39;94.14;102635.47;4942295;29;20054;-45
2022/07/09 06:50:27;;;;;;;20.45;15.50;;;;;;;18.38;94.59;102628.31;4932591;29;20054;-44
2022/07/09 06:52:54;;;;;;;19.27;14.90;;;;;;;18.40;94.89;102631.59;4929763;29;20046;-47
2022/07/09 06:55:22;;;;;;;21.63;16.85;;;;;;;18.40;95.77;102631.59;4938628;29;20467;-45
2022/07/09 06:57:50;;;;;;;21.20;15.70;;;;;;;18.42;95.78;102629.38;4945726;29;20039;-45
2022/07/09 07:00:17;;;;;;;20.02;15.30;;;;;;;18.44;95.96;102619.72;4938472;29;20390;-46
2022/07/09 07:02:45;;;;;;;20.50;15.63;;;;;;;18.50;95.97;102623.31;4921040;29;20039;-47
2022/07/09 07:05:12;;;;;;;25.15;16.80;;;;;;;18.53;95.76;102625.50;4939415;29;20371;-47
2022/07/09 07:07:45;;;;;;;20.35;15.25;;;;;;;18.55;95.09;102622.50;4937339;29;20044;-44
2022/07/09 07:10:12;;;;;;;19.33;14.00;;;;;;;18.56;93.98;102630.47;4947811;29;20040;-44
2022/07/09 07:12:40;;;;;;;17.88;13.00;;;;;;;18.57;93.06;102632.16;4938331;29;20040;-45
2022/07/09 07:15:08;;;;;;;16.65;12.25;;;;;;;18.58;92.87;102621.94;4938181;29;20056;-48
2022/07/09 07:17:36;;;;;;;21.42;15.43;;;;;;;18.62;93.17;102621.09;4944088;29;20047;-47
2022/07/09 07:20:04;;;;;;;15.02;11.27;;;;;;;18.63;91.29;102624.69;4938612;29;20044;-47
2022/07/09 07:22:31;;;;;;;16.80;12.18;;;;;;;18.67;91.26;102632.13;4938394;29;20079;-44
2022/07/09 07:24:59;;;;;;;14.80;11.98;;;;;;;18.71;91.01;102633.22;4921873;29;20056;-44
2022/07/09 07:27:26;;;;;;;16.98;12.02;;;;;;;18.74;91.28;102631.84;4938770;29;20040;-43
2022/07/09 07:29:54;;;;;;;20.48;13.02;;;;;;;18.74;90.72;102640.94;4940430;29;20520;-44
2022/07/09 07:32:22;;;;;;;19.25;12.30;;;;;;;18.71;90.48;102636.00;4921439;29;20047;-46
2022/07/09 07:34:49;;;;;;;13.55;9.85;;;;;;;18.74;89.97;102632.66;4938220;29;20044;-47
2022/07/09 07:37:17;;;;;;;18.13;12.23;;;;;;;18.76;90.54;102640.72;4940116;29;20380;-47
2022/07/09 07:39:47;;;;;;;18.15;11.82;;;;;;;18.78;90.11;102643.19;4921156;29;20047;-48
2022/07/09 07:42:15;;;;;;;16.55;11.43;;;;;;;18.76;90.41;102640.72;4937764;29;20039;-48
2022/07/09 07:44:43;;;;;;;15.80;11.23;;;;;;;18.79;90.61;102644.84;4938521;29;20130;-48
2022/07/09 07:47:10;;;;;;;17.40;11.30;;;;;;;18.80;90.35;102640.97;4937663;29;20051;-49
2022/07/09 07:49:38;;;;;;;15.20;10.95;;;;;;;18.82;89.80;102636.00;4938428;29;20063;-50
2022/07/09 07:52:06;;;;;;;16.00;9.77;;;;;;;18.84;89.17;102645.66;4937894;29;20487;-48
2022/07/09 07:54:35;;;;;;;17.40;9.25;;;;;;;18.88;89.43;102637.63;4937214;29;20495;-48
2022/07/09 07:57:03;;;;;;;20.38;11.77;;;;;;;18.98;88.34;102634.00;4942084;29;20122;-48
2022/07/09 07:59:31;;;;;;;18.00;11.55;;;;;;;19.01;89.03;102627.94;4938281;29;20372;-47
2022/07/09 08:01:58;;;;;;;16.83;11.70;;;;;;;19.04;88.87;102627.38;4966341;28;20039;-48
2022/07/09 08:04:26;;;;;;;16.50;10.70;;;;;;;19.07;88.75;102619.34;4940423;29;20044;-49
2022/07/09 08:06:54;;;;;;;16.00;10.32;;;;;;;19.13;87.91;102623.75;4901002;29;20131;-48
2022/07/09 08:09:22;;;;;;;30.98;11.82;;;;;;;19.21;85.87;102619.56;4930187;29;20044;-47
2022/07/09 08:11:49;;;;;;;17.05;12.70;;;;;;;19.28;87.82;102613.75;4937372;29;20188;-47
2022/07/09 08:14:17;;;;;;;18.73;12.40;;;;;;;19.30;87.37;102600.47;4937058;29;20044;-50
2022/07/09 08:16:44;;;;;;;17.75;12.88;;;;;;;19.30;86.36;102597.69;4938013;29;20208;-50
2022/07/09 08:19:14;;;;;;;16.73;11.43;;;;;;;19.35;85.27;102597.66;4937139;29;20045;-48
2022/07/09 08:21:42;;;;;;;16.88;11.25;;;;;;;19.38;85.55;102588.81;4938217;29;20098;-47
2022/07/09 08:24:09;;;;;;;22.77;12.43;;;;;;;19.40;84.85;102588.53;4937068;29;20043;-49
2022/07/09 08:26:37;;;;;;;16.92;12.00;;;;;;;19.40;84.30;102578.28;4936471;29;20050;-48
2022/07/09 08:29:05;;;;;;;16.88;12.02;;;;;;;19.46;84.09;102582.69;4938782;29;20051;-49
2022/07/09 08:31:32;;;;;;;17.77;8.05;;;;;;;19.56;82.76;102579.84;4937032;29;20058;-48
2022/07/09 08:34:00;;;;;;;17.25;9.95;;;;;;;19.64;83.56;102567.34;4938054;29;20131;-46
2022/07/09 08:36:28;;;;;;;12.75;8.57;;;;;;;19.71;84.08;102561.53;4938338;29;20436;-48
2022/07/09 08:38:55;;;;;;;17.73;9.60;;;;;;;19.77;82.83;102566.75;4948241;29;20054;-50
2022/07/09 08:41:24;;;;;;;13.40;9.05;;;;;;;19.83;82.06;102563.94;4937027;29;20046;-48
2022/07/09 08:43:54;;;;;;;15.93;7.95;;;;;;;19.87;82.23;102560.31;4936639;29;20455;-47
2022/07/09 08:46:22;;;;;;;16.58;10.73;;;;;;;19.90;81.72;102565.28;4937462;29;20475;-48
2022/07/09 08:48:50;;;;;;;15.70;11.55;;;;;;;19.91;80.96;102569.66;4941093;29;20040;-48
2022/07/09 08:51:19;;;;;;;18.73;12.43;;;;;;;19.86;81.78;102566.13;4919850;29;20028;-48
2022/07/09 08:53:47;;;;;;;17.83;11.95;;;;;;;19.82;81.10;102571.44;4920180;29;20057;-47
2022/07/09 08:56:15;;;;;;;15.68;10.82;;;;;;;19.83;80.92;102570.31;4939623;29;20047;-46
2022/07/09 08:58:42;;;;;;;18.77;13.02;;;;;;;19.85;82.49;102570.84;4931351;29;20039;-51
2022/07/09 09:01:15;;;;;;;20.95;12.95;;;;;;;19.87;83.41;102576.91;4921387;29;20036;-48
2022/07/09 09:03:43;;;;;;;18.02;13.75;;;;;;;19.89;83.75;102577.47;4936695;29;20051;-51
2022/07/09 09:06:12;;;;;;;19.00;14.00;;;;;;;19.87;83.88;102576.91;4919247;29;20050;-50
2022/07/09 09:08:42;;;;;;;21.10;13.82;;;;;;;19.86;84.48;102579.97;4920194;29;20050;-42
2022/07/09 09:11:20;;;;;;;18.05;12.55;;;;;;;19.87;83.67;102576.09;4920327;29;20044;-43
2022/07/09 09:13:49;;;;;;;21.02;13.07;;;;;;;19.88;83.86;102572.22;4919523;29;20391;-43
2022/07/09 09:16:18;;;;;;;15.80;10.63;;;;;;;19.89;84.12;102574.69;4936793;29;20056;-42
2022/07/09 09:18:48;;;;;;;15.93;12.90;;;;;;;19.90;84.68;102579.09;4936481;29;20043;-42
2022/07/09 09:21:21;;;;;;;19.95;12.52;;;;;;;19.90;83.98;102576.34;4936194;29;20542;-47
2022/07/09 09:23:59;;;;;;;19.25;13.13;;;;;;;19.90;84.85;102570.81;4937395;29;20036;-43
2022/07/09 09:26:27;;;;;;;16.92;11.45;;;;;;;19.92;84.01;102568.56;4937619;29;20047;-46
2022/07/09 09:28:56;;;;;;;17.65;11.30;;;;;;;19.90;82.98;102576.34;4946735;29;20472;-44
2022/07/09 09:31:28;;;;;;;19.00;11.55;;;;;;;19.93;83.17;102564.69;4936022;29;20040;-44
2022/07/09 09:34:17;;;;;;;18.33;12.40;;;;;;;19.94;83.63;102577.41;4919335;29;20522;-46
2022/07/09 09:36:47;;;;;;;16.33;11.32;;;;;;;19.92;83.67;102573.28;4926271;29;20503;-46
2022/07/09 09:39:21;;;;;;;20.85;13.25;;;;;;;19.89;83.92;102579.38;4926259;29;20115;-49
2022/07/09 09:42:02;;;;;;;19.70;13.80;;;;;;;19.86;84.05;102569.72;4932429;29;20058;-48
2022/07/09 09:44:37;;;;;;;21.30;14.35;;;;;;;19.85;84.92;102579.16;4919815;29;20040;-50
2022/07/09 09:47:07;;;;;;;28.02;15.38;;;;;;;19.87;85.07;102579.69;4936180;29;20402;-49
2022/07/09 09:49:38;;;;;;;22.83;14.77;;;;;;;19.90;85.22;102581.88;4912693;29;20044;-50
2022/07/09 09:52:12;;;;;;;19.98;13.82;;;;;;;19.93;84.56;102574.94;4935998;29;20499;-47
2022/07/09 09:54:45;;;;;;;19.48;13.45;;;;;;;20.01;84.15;102571.53;4922538;29;20115;-44
2022/07/09 09:57:24;;;;;;;17.75;12.95;;;;;;;20.14;83.76;102565.34;4935878;29;20508;-44
2022/07/09 09:59:52;;;;;;;18.65;13.15;;;;;;;20.21;83.53;102562.25;4924236;29;20419;-53
2022/07/09 10:02:20;;;;;;;21.52;14.75;;;;;;;20.28;82.60;102565.50;4919581;29;20067;-48
2022/07/09 10:04:48;;;;;;;18.52;13.30;;;;;;;20.37;82.96;102566.53;4933264;29;20510;-51
2022/07/09 10:07:16;;;;;;;21.58;15.43;;;;;;;20.38;81.61;102559.84;4933934;29;20043;-43
2022/07/09 10:09:58;;;;;;;23.77;14.68;;;;;;;20.34;81.96;102561.56;4938325;29;20044;-48
2022/07/09 10:12:29;;;;;;;23.88;14.63;;;;;;;20.32;82.54;102561.00;4928918;29;20036;-49
2022/07/09 10:14:57;;;;;;;20.77;13.43;;;;;;;20.32;83.42;102557.41;4922310;29;20522;-49
2022/07/09 10:17:26;;;;;;;19.00;14.15;;;;;;;20.34;83.81;102557.97;4939471;29;20051;-49
2022/07/09 10:20:07;;;;;;;24.08;15.65;;;;;;;20.42;84.32;102552.63;4925267;29;20043;-50
2022/07/09 10:22:43;;;;;;;20.48;15.85;;;;;;;20.43;84.24;102557.03;4940171;29;20062;-47
2022/07/09 10:25:26;;;;;;;21.73;15.73;;;;;;;20.39;85.10;102549.59;4939188;29;20036;-47
2022/07/09 10:27:54;;;;;;;27.23;15.65;;;;;;;20.37;84.80;102565.69;4907369;29;20040;-47
2022/07/09 10:30:30;;;;;;;18.98;12.95;;;;;;;20.29;83.83;102558.84;4940102;29;20523;-50
2022/07/09 10:33:14;;;;;;;20.83;13.20;;;;;;;20.28;83.90;102556.38;4922275;29;20410;-47
2022/07/09 10:35:43;;;;;;;20.25;13.77;;;;;;;20.32;83.99;102549.94;4927878;29;20047;-51
2022/07/09 10:38:11;;;;;;;19.27;13.98;;;;;;;20.36;83.92;102556.56;4925338;29;20047;-47
2022/07/09 10:40:58;;;;;;;18.88;13.40;;;;;;;20.38;84.24;102553.50;4919016;29;20127;-48
2022/07/09 10:43:50;;;;;;;21.10;14.75;;;;;;;20.42;84.10;102549.84;4934513;29;20039;-47
2022/07/09 10:46:18;;;;;;;21.60;14.57;;;;;;;20.51;84.22;102550.03;4939075;29;20040;-46
2022/07/09 10:48:46;;;;;;;17.42;11.52;;;;;;;20.53;82.48;102566.34;4949454;29;20133;-46
2022/07/09 10:51:21;;;;;;;15.30;9.98;;;;;;;;;;4925765;29;20050;-48
2022/07/09 10:53:48;;;;;;;17.80;9.10;;;;;;;20.72;79.76;102552.63;4938670;29;20040;-45
2022/07/09 10:56:20;;;;;;;12.45;8.35;;;;;;;20.85;78.31;102557.44;4939370;29;20040;-46
2022/07/09 10:58:49;;;;;;;12.93;8.75;;;;;;;20.83;78.51;102551.38;4939815;29;20050;-49
2022/07/09 11:01:26;;;;;;;12.48;8.48;;;;;;;20.76;78.44;102554.50;4937897;29;20479;-51
2022/07/09 11:03:54;;;;;;;10.77;6.85;;;;;;;20.76;76.76;102560.03;4938510;29;20051;-50
2022/07/09 11:06:22;;;;;;;11.40;5.65;;;;;;;20.81;75.69;102562.75;4953163;29;20035;-50
2022/07/09 11:08:50;;;;;;;13.52;6.10;;;;;;;20.76;75.50;102559.22;4940591;29;20529;-46
2022/07/09 11:11:24;;;;;;;10.40;6.22;;;;;;;20.72;76.28;102564.50;4921389;29;20050;-49
2022/07/09 11:13:54;;;;;;;10.52;6.40;;;;;;;20.79;76.04;102553.09;4937937;29;20055;-50
2022/07/09 11:16:23;;;;;;;12.05;6.20;;;;;;;20.85;75.55;102551.88;4955778;28;20423;-50
2022/07/09 11:18:53;;;;;;;9.65;5.40;;;;;;;20.89;74.90;102552.13;4922575;29;20077;-50